sensor_id;sensor_type;location;lat;lon;timestamp;P1;durP1;ratioP1;P2;durP2;ratioP2
5937;SDS011;2994;51.220;4.412;2023-12-20T01:37:56;4.47;;;3.23;;
5937;SDS011;2994;51.220;4.412;2023-12-20T01:43:06;9.40;;;4.03;;
5937;SDS011;2994;51.220;4.412;2023-12-20T01:45:58;10.23;;;3.67;;
5937;SDS011;2994;51.220;4.412;2023-12-20T01:48:31;7.83;;;3.97;;
5937;SDS011;2994;51.220;4.412;2023-12-20T01:51:02;6.53;;;3.60;;
5937;SDS011;2994;51.220;4.412;2023-12-20T01:59:19;8.67;;;5.40;;
5937;SDS011;2994;51.220;4.412;2023-12-20T02:20:19;8.37;;;4.00;;
5937;SDS011;2994;51.220;4.412;2023-12-20T02:49:15;6.97;;;3.90;;
5937;SDS011;2994;51.220;4.412;2023-12-20T02:52:10;11.27;;;4.47;;
5937;SDS011;2994;51.220;4.412;2023-12-20T03:05:16;8.20;;;4.43;;
5937;SDS011;2994;51.220;4.412;2023-12-20T03:17:28;5.47;;;3.90;;
5937;SDS011;2994;51.220;4.412;2023-12-20T03:20:05;8.50;;;4.63;;
5937;SDS011;2994;51.220;4.412;2023-12-20T03:29:14;8.07;;;3.33;;
5937;SDS011;2994;51.220;4.412;2023-12-20T03:58:40;7.70;;;4.00;;
5937;SDS011;2994;51.220;4.412;2023-12-20T06:00:38;9.80;;;4.90;;
5937;SDS011;2994;51.220;4.412;2023-12-20T07:56:53;12.10;;;4.13;;
5937;SDS011;2994;51.220;4.412;2023-12-20T07:59:19;8.17;;;3.53;;
5937;SDS011;2994;51.220;4.412;2023-12-20T08:01:44;8.13;;;4.10;;
5937;SDS011;2994;51.220;4.412;2023-12-20T08:04:10;8.80;;;4.53;;
5937;SDS011;2994;51.220;4.412;2023-12-20T08:06:35;9.37;;;4.30;;
5937;SDS011;2994;51.220;4.412;2023-12-20T08:09:02;13.23;;;4.40;;
5937;SDS011;2994;51.220;4.412;2023-12-20T08:11:33;9.93;;;3.87;;
5937;SDS011;2994;51.220;4.412;2023-12-20T08:19:09;10.07;;;4.40;;
5937;SDS011;2994;51.220;4.412;2023-12-20T08:21:34;7.03;;;3.30;;
5937;SDS011;2994;51.220;4.412;2023-12-20T08:26:35;8.13;;;3.80;;
5937;SDS011;2994;51.220;4.412;2023-12-20T08:55:14;12.40;;;3.87;;
5937;SDS011;2994;51.220;4.412;2023-12-20T08:58:18;10.60;;;4.60;;
5937;SDS011;2994;51.220;4.412;2023-12-20T09:06:14;9.70;;;3.70;;
5937;SDS011;2994;51.220;4.412;2023-12-20T09:11:17;8.67;;;3.30;;
5937;SDS011;2994;51.220;4.412;2023-12-20T09:13:48;10.17;;;4.03;;
5937;SDS011;2994;51.220;4.412;2023-12-20T09:48:45;9.03;;;3.30;;
5937;SDS011;2994;51.220;4.412;2023-12-20T09:59:04;8.90;;;4.43;;
5937;SDS011;2994;51.220;4.412;2023-12-20T10:22:15;7.30;;;3.67;;
5937;SDS011;2994;51.220;4.412;2023-12-20T10:24:40;8.13;;;3.63;;
5937;SDS011;2994;51.220;4.412;2023-12-20T10:27:07;6.50;;;4.13;;
5937;SDS011;2994;51.220;4.412;2023-12-20T10:29:37;7.07;;;3.87;;
5937;SDS011;2994;51.220;4.412;2023-12-20T10:32:22;9.13;;;5.10;;
5937;SDS011;2994;51.220;4.412;2023-12-20T10:34:49;4.87;;;3.10;;
5937;SDS011;2994;51.220;4.412;2023-12-20T10:37:16;10.77;;;3.83;;
5937;SDS011;2994;51.220;4.412;2023-12-20T10:39:42;8.37;;;3.43;;
5937;SDS011;2994;51.220;4.412;2023-12-20T10:42:11;10.00;;;3.60;;
5937;SDS011;2994;51.220;4.412;2023-12-20T10:44:37;10.87;;;4.43;;
5937;SDS011;2994;51.220;4.412;2023-12-20T10:47:04;8.07;;;5.83;;
5937;SDS011;2994;51.220;4.412;2023-12-20T10:49:34;12.03;;;5.67;;
5937;SDS011;2994;51.220;4.412;2023-12-20T10:52:02;7.93;;;3.63;;
5937;SDS011;2994;51.220;4.412;2023-12-20T10:54:30;6.83;;;3.97;;
5937;SDS011;2994;51.220;4.412;2023-12-20T10:56:57;7.50;;;4.53;;
5937;SDS011;2994;51.220;4.412;2023-12-20T10:59:26;18.17;;;4.63;;
5937;SDS011;2994;51.220;4.412;2023-12-20T11:01:54;11.00;;;4.50;;
5937;SDS011;2994;51.220;4.412;2023-12-20T11:04:28;10.67;;;4.50;;
5937;SDS011;2994;51.220;4.412;2023-12-20T11:07:19;8.47;;;4.47;;
5937;SDS011;2994;51.220;4.412;2023-12-20T11:09:59;13.17;;;3.57;;
5937;SDS011;2994;51.220;4.412;2023-12-20T11:12:41;9.57;;;4.67;;
5937;SDS011;2994;51.220;4.412;2023-12-20T11:15:21;8.70;;;4.40;;
5937;SDS011;2994;51.220;4.412;2023-12-20T11:18:07;10.30;;;4.80;;
5937;SDS011;2994;51.220;4.412;2023-12-20T11:20:36;8.10;;;4.20;;
5937;SDS011;2994;51.220;4.412;2023-12-20T11:23:08;13.20;;;4.97;;
5937;SDS011;2994;51.220;4.412;2023-12-20T11:25:47;8.87;;;4.30;;
5937;SDS011;2994;51.220;4.412;2023-12-20T11:44:02;11.83;;;4.73;;
5937;SDS011;2994;51.220;4.412;2023-12-20T11:47:15;9.03;;;3.80;;
5937;SDS011;2994;51.220;4.412;2023-12-20T11:52:30;9.07;;;4.57;;
5937;SDS011;2994;51.220;4.412;2023-12-20T11:55:00;8.33;;;4.03;;
5937;SDS011;2994;51.220;4.412;2023-12-20T11:57:25;9.53;;;4.90;;
5937;SDS011;2994;51.220;4.412;2023-12-20T11:59:51;8.77;;;4.47;;
5937;SDS011;2994;51.220;4.412;2023-12-20T12:02:17;12.80;;;4.50;;
5937;SDS011;2994;51.220;4.412;2023-12-20T12:04:42;12.83;;;4.77;;
5937;SDS011;2994;51.220;4.412;2023-12-20T12:07:15;10.93;;;4.80;;
5937;SDS011;2994;51.220;4.412;2023-12-20T12:12:22;12.43;;;4.20;;
5937;SDS011;2994;51.220;4.412;2023-12-20T12:30:22;11.97;;;4.93;;
5937;SDS011;2994;51.220;4.412;2023-12-20T12:40:37;9.00;;;3.40;;
5937;SDS011;2994;51.220;4.412;2023-12-20T12:43:06;14.60;;;5.53;;
5937;SDS011;2994;51.220;4.412;2023-12-20T13:03:57;8.73;;;4.60;;
5937;SDS011;2994;51.220;4.412;2023-12-20T13:06:26;9.93;;;4.30;;
5937;SDS011;2994;51.220;4.412;2023-12-20T13:08:54;9.50;;;4.10;;
5937;SDS011;2994;51.220;4.412;2023-12-20T13:11:29;8.80;;;4.47;;
5937;SDS011;2994;51.220;4.412;2023-12-20T13:13:56;8.13;;;4.70;;
5937;SDS011;2994;51.220;4.412;2023-12-20T13:16:22;9.10;;;4.00;;
5937;SDS011;2994;51.220;4.412;2023-12-20T13:18:56;14.40;;;4.43;;
5937;SDS011;2994;51.220;4.412;2023-12-20T13:21:30;7.50;;;3.70;;
5937;SDS011;2994;51.220;4.412;2023-12-20T13:23:55;10.53;;;3.90;;
5937;SDS011;2994;51.220;4.412;2023-12-20T13:26:21;10.43;;;4.20;;
5937;SDS011;2994;51.220;4.412;2023-12-20T13:28:47;8.97;;;4.73;;
5937;SDS011;2994;51.220;4.412;2023-12-20T13:31:12;9.20;;;4.60;;
5937;SDS011;2994;51.220;4.412;2023-12-20T13:33:37;9.70;;;5.80;;
5937;SDS011;2994;51.220;4.412;2023-12-20T13:36:04;11.60;;;4.90;;
5937;SDS011;2994;51.220;4.412;2023-12-20T13:41:05;10.70;;;4.73;;
5937;SDS011;2994;51.220;4.412;2023-12-20T13:43:31;11.60;;;5.33;;
5937;SDS011;2994;51.220;4.412;2023-12-20T13:46:12;13.80;;;6.17;;
5937;SDS011;2994;51.220;4.412;2023-12-20T13:48:39;11.93;;;5.30;;
5937;SDS011;2994;51.220;4.412;2023-12-20T14:16:59;10.47;;;4.73;;
5937;SDS011;2994;51.220;4.412;2023-12-20T14:19:32;10.90;;;4.03;;
5937;SDS011;2994;51.220;4.412;2023-12-20T14:21:57;8.90;;;4.03;;
5937;SDS011;2994;51.220;4.412;2023-12-20T14:24:27;10.03;;;4.43;;
5937;SDS011;2994;51.220;4.412;2023-12-20T14:26:55;9.30;;;4.37;;
5937;SDS011;2994;51.220;4.412;2023-12-20T14:29:21;8.70;;;3.10;;
5937;SDS011;2994;51.220;4.412;2023-12-20T14:31:46;8.80;;;3.77;;
5937;SDS011;2994;51.220;4.412;2023-12-20T14:34:12;13.13;;;3.60;;
5937;SDS011;2994;51.220;4.412;2023-12-20T14:36:37;8.40;;;3.57;;
5937;SDS011;2994;51.220;4.412;2023-12-20T14:39:03;7.73;;;3.10;;
5937;SDS011;2994;51.220;4.412;2023-12-20T14:41:29;7.23;;;3.00;;
5937;SDS011;2994;51.220;4.412;2023-12-20T14:43:55;8.40;;;4.03;;
5937;SDS011;2994;51.220;4.412;2023-12-20T14:46:21;9.70;;;3.60;;
5937;SDS011;2994;51.220;4.412;2023-12-20T14:48:46;9.30;;;3.80;;
5937;SDS011;2994;51.220;4.412;2023-12-20T14:51:13;13.80;;;4.47;;
5937;SDS011;2994;51.220;4.412;2023-12-20T14:53:39;11.47;;;5.00;;
5937;SDS011;2994;51.220;4.412;2023-12-20T14:56:04;12.53;;;4.47;;
5937;SDS011;2994;51.220;4.412;2023-12-20T14:58:34;9.13;;;3.73;;
5937;SDS011;2994;51.220;4.412;2023-12-20T15:01:02;14.00;;;4.27;;
5937;SDS011;2994;51.220;4.412;2023-12-20T15:03:39;9.27;;;3.70;;
5937;SDS011;2994;51.220;4.412;2023-12-20T15:06:05;11.03;;;4.10;;
5937;SDS011;2994;51.220;4.412;2023-12-20T15:21:28;5.40;;;3.63;;
5937;SDS011;2994;51.220;4.412;2023-12-20T15:23:58;12.83;;;4.30;;
5937;SDS011;2994;51.220;4.412;2023-12-20T15:26:37;12.27;;;4.00;;
5937;SDS011;2994;51.220;4.412;2023-12-20T15:29:08;7.17;;;3.17;;
5937;SDS011;2994;51.220;4.412;2023-12-20T15:31:46;9.13;;;4.90;;
5937;SDS011;2994;51.220;4.412;2023-12-20T15:34:25;10.73;;;4.60;;
5937;SDS011;2994;51.220;4.412;2023-12-20T15:36:54;13.70;;;5.33;;
5937;SDS011;2994;51.220;4.412;2023-12-20T15:39:20;7.90;;;3.93;;
5937;SDS011;2994;51.220;4.412;2023-12-20T15:41:52;9.77;;;3.47;;
5937;SDS011;2994;51.220;4.412;2023-12-20T15:44:21;9.80;;;4.83;;
5937;SDS011;2994;51.220;4.412;2023-12-20T15:46:47;7.90;;;4.13;;
5937;SDS011;2994;51.220;4.412;2023-12-20T15:49:15;9.67;;;4.83;;
5937;SDS011;2994;51.220;4.412;2023-12-20T15:51:43;9.50;;;4.10;;
5937;SDS011;2994;51.220;4.412;2023-12-20T15:54:09;7.20;;;4.43;;
5937;SDS011;2994;51.220;4.412;2023-12-20T15:56:44;9.07;;;4.03;;
5937;SDS011;2994;51.220;4.412;2023-12-20T15:59:13;10.30;;;3.73;;
5937;SDS011;2994;51.220;4.412;2023-12-20T16:04:23;8.43;;;5.73;;
5937;SDS011;2994;51.220;4.412;2023-12-20T16:06:48;7.87;;;4.77;;
5937;SDS011;2994;51.220;4.412;2023-12-20T16:09:20;7.27;;;4.80;;
5937;SDS011;2994;51.220;4.412;2023-12-20T16:11:48;8.87;;;5.27;;
5937;SDS011;2994;51.220;4.412;2023-12-20T16:14:15;9.50;;;5.40;;
5937;SDS011;2994;51.220;4.412;2023-12-20T16:16:47;9.53;;;4.90;;
5937;SDS011;2994;51.220;4.412;2023-12-20T16:19:14;5.63;;;4.73;;
5937;SDS011;2994;51.220;4.412;2023-12-20T16:21:40;9.77;;;4.50;;
5937;SDS011;2994;51.220;4.412;2023-12-20T16:24:06;10.93;;;4.90;;
5937;SDS011;2994;51.220;4.412;2023-12-20T16:26:32;8.90;;;4.63;;
5937;SDS011;2994;51.220;4.412;2023-12-20T16:28:57;11.27;;;6.23;;
5937;SDS011;2994;51.220;4.412;2023-12-20T16:31:23;8.17;;;4.90;;
5937;SDS011;2994;51.220;4.412;2023-12-20T16:33:49;7.67;;;4.20;;
5937;SDS011;2994;51.220;4.412;2023-12-20T16:36:16;9.70;;;4.47;;
5937;SDS011;2994;51.220;4.412;2023-12-20T16:38:41;12.13;;;4.63;;
5937;SDS011;2994;51.220;4.412;2023-12-20T16:41:07;10.03;;;4.47;;
5937;SDS011;2994;51.220;4.412;2023-12-20T16:43:32;10.70;;;4.63;;
5937;SDS011;2994;51.220;4.412;2023-12-20T16:45:58;7.13;;;5.17;;
5937;SDS011;2994;51.220;4.412;2023-12-20T16:48:23;11.07;;;4.47;;
5937;SDS011;2994;51.220;4.412;2023-12-20T16:50:49;10.70;;;4.80;;
5937;SDS011;2994;51.220;4.412;2023-12-20T16:53:14;6.80;;;4.00;;
5937;SDS011;2994;51.220;4.412;2023-12-20T16:55:42;7.83;;;4.07;;
5937;SDS011;2994;51.220;4.412;2023-12-20T16:58:12;6.07;;;4.10;;
5937;SDS011;2994;51.220;4.412;2023-12-20T17:00:38;7.93;;;4.00;;
5937;SDS011;2994;51.220;4.412;2023-12-20T17:03:05;10.10;;;4.63;;
5937;SDS011;2994;51.220;4.412;2023-12-20T17:05:31;8.07;;;3.70;;
5937;SDS011;2994;51.220;4.412;2023-12-20T17:07:56;13.47;;;4.90;;
5937;SDS011;2994;51.220;4.412;2023-12-20T17:10:21;10.73;;;4.83;;
5937;SDS011;2994;51.220;4.412;2023-12-20T17:12:47;10.40;;;4.57;;
5937;SDS011;2994;51.220;4.412;2023-12-20T17:15:12;8.20;;;4.53;;
5937;SDS011;2994;51.220;4.412;2023-12-20T17:17:38;8.30;;;4.40;;
5937;SDS011;2994;51.220;4.412;2023-12-20T17:20:04;8.30;;;5.37;;
5937;SDS011;2994;51.220;4.412;2023-12-20T17:22:30;10.33;;;4.73;;
5937;SDS011;2994;51.220;4.412;2023-12-20T17:24:55;15.23;;;6.70;;
5937;SDS011;2994;51.220;4.412;2023-12-20T17:27:21;6.77;;;4.80;;
5937;SDS011;2994;51.220;4.412;2023-12-20T17:29:46;5.70;;;3.97;;
5937;SDS011;2994;51.220;4.412;2023-12-20T17:32:12;9.17;;;4.50;;
5937;SDS011;2994;51.220;4.412;2023-12-20T17:34:37;8.23;;;4.93;;
5937;SDS011;2994;51.220;4.412;2023-12-20T17:37:03;8.20;;;5.00;;
5937;SDS011;2994;51.220;4.412;2023-12-20T17:39:32;8.40;;;4.67;;
5937;SDS011;2994;51.220;4.412;2023-12-20T17:41:58;11.70;;;6.00;;
5937;SDS011;2994;51.220;4.412;2023-12-20T17:44:23;12.20;;;7.03;;
5937;SDS011;2994;51.220;4.412;2023-12-20T17:46:49;10.40;;;6.03;;
5937;SDS011;2994;51.220;4.412;2023-12-20T17:49:15;13.73;;;8.70;;
5937;SDS011;2994;51.220;4.412;2023-12-20T17:51:43;10.60;;;9.13;;
5937;SDS011;2994;51.220;4.412;2023-12-20T17:54:10;9.27;;;8.27;;
5937;SDS011;2994;51.220;4.412;2023-12-20T17:56:35;9.60;;;7.70;;
5937;SDS011;2994;51.220;4.412;2023-12-20T17:59:00;18.03;;;9.63;;
5937;SDS011;2994;51.220;4.412;2023-12-20T18:01:26;10.40;;;6.53;;
5937;SDS011;2994;51.220;4.412;2023-12-20T18:03:51;12.00;;;7.97;;
5937;SDS011;2994;51.220;4.412;2023-12-20T18:06:17;9.27;;;6.60;;
5937;SDS011;2994;51.220;4.412;2023-12-20T18:08:45;13.07;;;7.90;;
5937;SDS011;2994;51.220;4.412;2023-12-20T18:11:11;13.90;;;8.20;;
5937;SDS011;2994;51.220;4.412;2023-12-20T18:13:36;10.47;;;5.43;;
5937;SDS011;2994;51.220;4.412;2023-12-20T18:16:02;8.73;;;5.43;;
5937;SDS011;2994;51.220;4.412;2023-12-20T18:18:34;7.13;;;5.10;;
5937;SDS011;2994;51.220;4.412;2023-12-20T18:21:00;7.33;;;6.07;;
5937;SDS011;2994;51.220;4.412;2023-12-20T18:23:30;9.20;;;5.83;;
5937;SDS011;2994;51.220;4.412;2023-12-20T18:25:55;9.40;;;6.27;;
5937;SDS011;2994;51.220;4.412;2023-12-20T18:28:21;6.53;;;5.33;;
5937;SDS011;2994;51.220;4.412;2023-12-20T18:30:47;10.67;;;7.00;;
5937;SDS011;2994;51.220;4.412;2023-12-20T18:33:13;10.53;;;7.70;;
5937;SDS011;2994;51.220;4.412;2023-12-20T18:35:38;9.77;;;6.10;;
5937;SDS011;2994;51.220;4.412;2023-12-20T18:38:05;10.40;;;6.63;;
5937;SDS011;2994;51.220;4.412;2023-12-20T18:40:30;9.67;;;6.00;;
5937;SDS011;2994;51.220;4.412;2023-12-20T18:42:56;9.00;;;5.90;;
5937;SDS011;2994;51.220;4.412;2023-12-20T18:45:22;12.50;;;7.10;;
5937;SDS011;2994;51.220;4.412;2023-12-20T18:47:47;6.90;;;6.20;;
5937;SDS011;2994;51.220;4.412;2023-12-20T18:50:13;11.63;;;6.40;;
5937;SDS011;2994;51.220;4.412;2023-12-20T18:52:38;5.77;;;5.00;;
5937;SDS011;2994;51.220;4.412;2023-12-20T18:55:05;8.80;;;4.80;;
5937;SDS011;2994;51.220;4.412;2023-12-20T18:57:30;7.60;;;4.60;;
5937;SDS011;2994;51.220;4.412;2023-12-20T18:59:56;10.43;;;5.67;;
5937;SDS011;2994;51.220;4.412;2023-12-20T19:02:23;7.30;;;4.10;;
5937;SDS011;2994;51.220;4.412;2023-12-20T19:04:48;9.80;;;4.20;;
5937;SDS011;2994;51.220;4.412;2023-12-20T19:07:13;5.50;;;3.60;;
5937;SDS011;2994;51.220;4.412;2023-12-20T19:09:39;9.53;;;4.07;;
5937;SDS011;2994;51.220;4.412;2023-12-20T19:12:04;7.73;;;3.50;;
5937;SDS011;2994;51.220;4.412;2023-12-20T19:14:30;6.50;;;3.57;;
5937;SDS011;2994;51.220;4.412;2023-12-20T19:16:56;6.63;;;3.77;;
5937;SDS011;2994;51.220;4.412;2023-12-20T19:19:24;7.33;;;3.90;;
5937;SDS011;2994;51.220;4.412;2023-12-20T19:21:49;7.23;;;3.93;;
5937;SDS011;2994;51.220;4.412;2023-12-20T19:24:14;9.30;;;3.90;;
5937;SDS011;2994;51.220;4.412;2023-12-20T19:26:43;6.67;;;3.47;;
5937;SDS011;2994;51.220;4.412;2023-12-20T19:29:08;6.57;;;3.50;;
5937;SDS011;2994;51.220;4.412;2023-12-20T19:31:34;6.00;;;3.87;;
5937;SDS011;2994;51.220;4.412;2023-12-20T19:33:59;6.00;;;4.10;;
5937;SDS011;2994;51.220;4.412;2023-12-20T19:36:25;9.30;;;4.23;;
5937;SDS011;2994;51.220;4.412;2023-12-20T19:38:50;7.87;;;3.20;;
5937;SDS011;2994;51.220;4.412;2023-12-20T19:41:16;6.70;;;3.97;;
5937;SDS011;2994;51.220;4.412;2023-12-20T19:43:42;5.13;;;3.57;;
5937;SDS011;2994;51.220;4.412;2023-12-20T19:46:08;6.00;;;4.10;;
5937;SDS011;2994;51.220;4.412;2023-12-20T19:48:34;9.23;;;4.83;;
5937;SDS011;2994;51.220;4.412;2023-12-20T19:50:59;7.13;;;3.93;;
5937;SDS011;2994;51.220;4.412;2023-12-20T19:53:24;10.47;;;4.70;;
5937;SDS011;2994;51.220;4.412;2023-12-20T19:55:51;10.37;;;5.73;;
5937;SDS011;2994;51.220;4.412;2023-12-20T19:58:17;8.80;;;6.13;;
5937;SDS011;2994;51.220;4.412;2023-12-20T20:00:42;8.70;;;4.70;;
5937;SDS011;2994;51.220;4.412;2023-12-20T20:03:08;7.03;;;4.90;;
5937;SDS011;2994;51.220;4.412;2023-12-20T20:05:33;5.30;;;3.93;;
5937;SDS011;2994;51.220;4.412;2023-12-20T20:07:59;4.63;;;3.10;;
5937;SDS011;2994;51.220;4.412;2023-12-20T20:10:24;8.90;;;3.90;;
5937;SDS011;2994;51.220;4.412;2023-12-20T20:12:50;8.30;;;4.53;;
5937;SDS011;2994;51.220;4.412;2023-12-20T20:15:15;7.77;;;4.90;;
5937;SDS011;2994;51.220;4.412;2023-12-20T20:17:41;8.00;;;4.10;;
5937;SDS011;2994;51.220;4.412;2023-12-20T20:20:06;7.90;;;4.63;;
5937;SDS011;2994;51.220;4.412;2023-12-20T20:22:32;7.17;;;5.53;;
5937;SDS011;2994;51.220;4.412;2023-12-20T20:25:00;12.53;;;5.80;;
5937;SDS011;2994;51.220;4.412;2023-12-20T20:27:25;8.17;;;5.33;;
5937;SDS011;2994;51.220;4.412;2023-12-20T20:29:51;7.33;;;5.20;;
5937;SDS011;2994;51.220;4.412;2023-12-20T20:32:16;7.23;;;4.70;;
5937;SDS011;2994;51.220;4.412;2023-12-20T20:34:43;8.03;;;4.70;;
5937;SDS011;2994;51.220;4.412;2023-12-20T20:37:09;6.30;;;4.47;;
5937;SDS011;2994;51.220;4.412;2023-12-20T20:39:35;7.23;;;4.87;;
5937;SDS011;2994;51.220;4.412;2023-12-20T20:42:01;9.60;;;4.83;;
5937;SDS011;2994;51.220;4.412;2023-12-20T20:44:26;8.60;;;5.77;;
5937;SDS011;2994;51.220;4.412;2023-12-20T20:46:52;6.60;;;4.43;;
5937;SDS011;2994;51.220;4.412;2023-12-20T20:49:18;7.90;;;4.03;;
5937;SDS011;2994;51.220;4.412;2023-12-20T20:51:43;6.73;;;4.40;;
5937;SDS011;2994;51.220;4.412;2023-12-20T20:54:09;10.40;;;5.00;;
5937;SDS011;2994;51.220;4.412;2023-12-20T20:56:35;15.03;;;5.60;;
5937;SDS011;2994;51.220;4.412;2023-12-20T20:59:01;11.57;;;5.00;;
5937;SDS011;2994;51.220;4.412;2023-12-20T21:01:27;9.67;;;4.17;;
5937;SDS011;2994;51.220;4.412;2023-12-20T21:03:56;9.60;;;4.67;;
5937;SDS011;2994;51.220;4.412;2023-12-20T21:06:22;7.93;;;4.23;;
5937;SDS011;2994;51.220;4.412;2023-12-20T21:08:47;9.43;;;4.53;;
5937;SDS011;2994;51.220;4.412;2023-12-20T21:11:13;7.20;;;4.00;;
5937;SDS011;2994;51.220;4.412;2023-12-20T21:13:40;5.50;;;4.40;;
5937;SDS011;2994;51.220;4.412;2023-12-20T21:16:05;10.27;;;5.30;;
5937;SDS011;2994;51.220;4.412;2023-12-20T21:18:32;7.77;;;3.73;;
5937;SDS011;2994;51.220;4.412;2023-12-20T21:20:58;6.47;;;4.50;;
5937;SDS011;2994;51.220;4.412;2023-12-20T21:23:23;8.83;;;4.83;;
5937;SDS011;2994;51.220;4.412;2023-12-20T21:25:50;8.53;;;4.80;;
5937;SDS011;2994;51.220;4.412;2023-12-20T21:28:16;7.63;;;4.13;;
5937;SDS011;2994;51.220;4.412;2023-12-20T21:30:41;9.70;;;4.83;;
5937;SDS011;2994;51.220;4.412;2023-12-20T21:33:07;7.20;;;3.93;;
5937;SDS011;2994;51.220;4.412;2023-12-20T21:35:32;5.50;;;3.60;;
5937;SDS011;2994;51.220;4.412;2023-12-20T21:37:58;14.90;;;4.40;;
5937;SDS011;2994;51.220;4.412;2023-12-20T21:40:23;6.00;;;3.90;;
5937;SDS011;2994;51.220;4.412;2023-12-20T21:42:49;7.63;;;4.00;;
5937;SDS011;2994;51.220;4.412;2023-12-20T21:45:16;6.33;;;3.20;;
5937;SDS011;2994;51.220;4.412;2023-12-20T21:47:41;11.53;;;4.40;;
5937;SDS011;2994;51.220;4.412;2023-12-20T21:50:07;6.47;;;3.83;;
5937;SDS011;2994;51.220;4.412;2023-12-20T21:52:34;5.80;;;3.57;;
5937;SDS011;2994;51.220;4.412;2023-12-20T21:55:02;7.53;;;3.87;;
5937;SDS011;2994;51.220;4.412;2023-12-20T21:57:28;5.60;;;3.60;;
5937;SDS011;2994;51.220;4.412;2023-12-20T21:59:53;7.03;;;4.37;;
5937;SDS011;2994;51.220;4.412;2023-12-20T22:02:19;6.73;;;4.23;;
5937;SDS011;2994;51.220;4.412;2023-12-20T22:04:44;6.17;;;3.87;;
5937;SDS011;2994;51.220;4.412;2023-12-20T22:07:10;7.60;;;3.83;;
5937;SDS011;2994;51.220;4.412;2023-12-20T22:09:35;9.40;;;4.07;;
5937;SDS011;2994;51.220;4.412;2023-12-20T22:12:00;5.37;;;4.23;;
5937;SDS011;2994;51.220;4.412;2023-12-20T22:14:27;8.27;;;5.70;;
5937;SDS011;2994;51.220;4.412;2023-12-20T22:16:54;6.10;;;4.10;;
5937;SDS011;2994;51.220;4.412;2023-12-20T22:19:20;8.53;;;4.30;;
5937;SDS011;2994;51.220;4.412;2023-12-20T22:21:45;6.80;;;4.60;;
5937;SDS011;2994;51.220;4.412;2023-12-20T22:24:11;10.50;;;4.93;;
5937;SDS011;2994;51.220;4.412;2023-12-20T22:26:36;6.93;;;4.50;;
5937;SDS011;2994;51.220;4.412;2023-12-20T22:29:02;7.80;;;4.40;;
5937;SDS011;2994;51.220;4.412;2023-12-20T22:31:27;7.83;;;4.60;;
5937;SDS011;2994;51.220;4.412;2023-12-20T22:33:53;5.53;;;4.43;;
5937;SDS011;2994;51.220;4.412;2023-12-20T22:36:18;5.60;;;5.00;;
5937;SDS011;2994;51.220;4.412;2023-12-20T22:38:44;9.87;;;4.40;;
5937;SDS011;2994;51.220;4.412;2023-12-20T22:41:10;5.90;;;4.77;;
5937;SDS011;2994;51.220;4.412;2023-12-20T22:43:36;5.60;;;4.13;;
5937;SDS011;2994;51.220;4.412;2023-12-20T22:46:02;8.97;;;4.93;;
5937;SDS011;2994;51.220;4.412;2023-12-20T22:48:28;7.03;;;3.80;;
5937;SDS011;2994;51.220;4.412;2023-12-20T22:50:56;7.33;;;4.20;;
5937;SDS011;2994;51.220;4.412;2023-12-20T22:53:22;7.53;;;4.50;;
5937;SDS011;2994;51.220;4.412;2023-12-20T22:55:47;7.27;;;3.77;;
5937;SDS011;2994;51.220;4.412;2023-12-20T22:58:13;9.83;;;4.73;;
5937;SDS011;2994;51.220;4.412;2023-12-20T23:00:38;6.83;;;4.70;;
5937;SDS011;2994;51.220;4.412;2023-12-20T23:03:05;7.77;;;4.23;;
5937;SDS011;2994;51.220;4.412;2023-12-20T23:05:30;7.20;;;5.07;;
5937;SDS011;2994;51.220;4.412;2023-12-20T23:07:56;10.13;;;4.33;;
5937;SDS011;2994;51.220;4.412;2023-12-20T23:10:21;6.00;;;5.40;;
5937;SDS011;2994;51.220;4.412;2023-12-20T23:12:51;5.10;;;4.10;;
5937;SDS011;2994;51.220;4.412;2023-12-20T23:15:17;5.83;;;4.30;;
5937;SDS011;2994;51.220;4.412;2023-12-20T23:17:42;12.90;;;4.63;;
5937;SDS011;2994;51.220;4.412;2023-12-20T23:20:08;9.60;;;3.60;;
5937;SDS011;2994;51.220;4.412;2023-12-20T23:22:33;4.97;;;3.73;;
5937;SDS011;2994;51.220;4.412;2023-12-20T23:24:59;7.97;;;4.63;;
5937;SDS011;2994;51.220;4.412;2023-12-20T23:27:25;7.00;;;4.00;;
5937;SDS011;2994;51.220;4.412;2023-12-20T23:29:52;5.30;;;3.63;;
5937;SDS011;2994;51.220;4.412;2023-12-20T23:32:18;7.70;;;3.97;;
5937;SDS011;2994;51.220;4.412;2023-12-20T23:34:44;7.90;;;3.60;;
5937;SDS011;2994;51.220;4.412;2023-12-20T23:37:10;6.70;;;3.43;;
5937;SDS011;2994;51.220;4.412;2023-12-20T23:39:38;11.70;;;3.90;;
5937;SDS011;2994;51.220;4.412;2023-12-20T23:42:04;6.27;;;3.33;;
5937;SDS011;2994;51.220;4.412;2023-12-20T23:44:29;5.30;;;3.43;;
5937;SDS011;2994;51.220;4.412;2023-12-20T23:46:55;7.50;;;3.50;;
5937;SDS011;2994;51.220;4.412;2023-12-20T23:49:20;6.73;;;3.30;;
5937;SDS011;2994;51.220;4.412;2023-12-20T23:51:47;8.90;;;4.10;;
5937;SDS011;2994;51.220;4.412;2023-12-20T23:54:13;4.83;;;4.20;;
5937;SDS011;2994;51.220;4.412;2023-12-20T23:56:38;3.30;;;2.97;;
5937;SDS011;2994;51.220;4.412;2023-12-20T23:59:04;4.53;;;3.13;;
